Time;durP1;ratioP1;P1;durP2;ratioP2;P2;SDS_P1;SDS_P2;PMS_P1;PMS_P2;Temp;Humidity;BMP_temperature;BMP_pressure;BME280_temperature;BME280_humidity;BME280_pressure;Samples;Min_cycle;Max_cycle;Signal;HPM_P1;HPM_P2
2024/02/09 18:21:59;;;;;;;;;9.25;6.00;;;;;;;;5040264;27;1337061;-72
2024/02/09 18:24:24;;;;;;;;;8.50;4.00;;;;;;;;5070827;28;8876;-73
2024/02/09 18:26:51;;;;;;;;;4.25;4.25;;;;;;;;5071604;28;11471;-72
2024/02/09 18:29:17;;;;;;;;;5.00;5.00;;;;;;;;5077618;28;8804;-74
2024/02/09 18:31:42;;;;;;;;;7.25;5.00;;;;;;;;5072130;28;11494;-74
2024/02/09 18:34:08;;;;;;;;;4.50;4.25;;;;;;;;5067038;28;8889;-69
2024/02/09 18:36:35;;;;;;;;;6.00;5.00;;;;;;;;5071231;28;8799;-70
2024/02/09 18:39:00;;;;;;;;;4.50;4.50;;;;;;;;5054565;28;9597;-72
2024/02/09 18:41:25;;;;;;;;;5.00;3.50;;;;;;;;5074429;28;11456;-71
2024/02/09 18:43:50;;;;;;;;;4.00;1.00;;;;;;;;5074900;28;8786;-72
2024/02/09 18:46:16;;;;;;;;;1.00;1.00;;;;;;;;5058669;28;8792;-72
2024/02/09 18:48:41;;;;;;;;;4.00;2.00;;;;;;;;5076229;28;9512;-74
2024/02/09 18:51:06;;;;;;;;;4.00;2.00;;;;;;;;5067180;28;8811;-73
2024/02/09 18:53:31;;;;;;;;;2.00;2.00;;;;;;;;5075074;28;8786;-79
2024/02/09 18:56:00;;;;;;;;;6.50;2.50;;;;;;;;5076488;28;8782;-74
2024/02/09 18:58:25;;;;;;;;;6.00;4.00;;;;;;;;5060521;28;8808;-81
2024/02/09 19:00:54;;;;;;;;;3.50;1.50;;;;;;;;5056387;28;11500;-72
2024/02/09 19:03:19;;;;;;;;;3.00;1.50;;;;;;;;5078740;28;8788;-77
2024/02/09 19:05:44;;;;;;;;;4.00;3.00;;;;;;;;5075172;28;11358;-79
2024/02/09 19:08:10;;;;;;;;;1.50;1.00;;;;;;;;5075960;28;8806;-73
2024/02/09 19:10:35;;;;;;;;;11.00;6.00;;;;;;;;5066768;28;8802;-74
2024/02/09 19:13:00;;;;;;;;;4.00;2.00;;;;;;;;5066945;28;9573;-73
2024/02/09 19:15:26;;;;;;;;;2.00;2.00;;;;;;;;5072862;28;8875;-72
2024/02/09 19:17:52;;;;;;;;;4.00;4.00;;;;;;;;5077513;28;8861;-73
2024/02/09 19:20:18;;;;;;;;;5.00;2.00;;;;;;;;5074494;28;8830;-72
2024/02/09 19:22:43;;;;;;;;;3.75;2.25;;;;;;;;5066723;28;8794;-73
2024/02/09 19:25:10;;;;;;;;;4.75;4.00;;;;;;;;5055535;28;12224;-77
2024/02/09 19:27:36;;;;;;;;;4.75;3.50;;;;;;;;5076616;28;8790;-76
2024/02/09 19:30:02;;;;;;;;;5.00;5.00;;;;;;;;5066321;28;12426;-71
2024/02/09 19:32:27;;;;;;;;;2.00;2.00;;;;;;;;5065092;28;11351;-73
2024/02/09 19:34:53;;;;;;;;;6.75;3.75;;;;;;;;5060034;28;8828;-73
2024/02/09 19:37:18;;;;;;;;;4.00;4.00;;;;;;;;5063264;28;8795;-72
2024/02/09 19:39:45;;;;;;;;;4.75;4.00;;;;;;;;5034645;28;8845;-72
2024/02/09 19:42:11;;;;;;;;;6.50;5.00;;;;;;;;5059691;28;8806;-71
2024/02/09 19:44:37;;;;;;;;;3.00;2.00;;;;;;;;5058212;28;11374;-72
2024/02/09 19:47:03;;;;;;;;;3.50;2.00;;;;;;;;5048017;28;8809;-74
2024/02/09 19:49:28;;;;;;;;;2.50;2.00;;;;;;;;5054216;28;11459;-73
2024/02/09 19:51:54;;;;;;;;;5.00;2.00;;;;;;;;5046178;28;8854;-73
2024/02/09 19:54:20;;;;;;;;;4.50;2.00;;;;;;;;5052752;28;9551;-73
2024/02/09 19:56:55;;;;;;;;;1.75;1.00;;;;;;;;5069337;28;11342;-73
2024/02/09 19:59:20;;;;;;;;;5.50;4.00;;;;;;;;5072941;28;11321;-71
2024/02/09 20:01:48;;;;;;;;;4.50;4.00;;;;;;;;5047226;28;11417;-73
2024/02/09 20:04:17;;;;;;;;;29.25;23.75;;;;;;;;5062695;28;8937;-73
2024/02/09 20:06:46;;;;;;;;;9.75;8.50;;;;;;;;5053200;28;11505;-72
2024/02/09 20:09:12;;;;;;;;;5.00;4.00;;;;;;;;5039551;28;11587;-73
2024/02/09 20:11:37;;;;;;;;;4.50;4.00;;;;;;;;5057439;28;11580;-75
2024/02/09 20:14:03;;;;;;;;;2.50;2.00;;;;;;;;5053915;28;8799;-75
2024/02/09 20:16:30;;;;;;;;;5.00;2.00;;;;;;;;5051178;28;8897;-71
2024/02/09 20:18:55;;;;;;;;;4.75;1.75;;;;;;;;5055826;28;11393;-73
2024/02/09 20:21:21;;;;;;;;;0.75;0.75;;;;;;;;5040531;28;11213;-76
2024/02/09 20:23:47;;;;;;;;;4.75;2.00;;;;;;;;5057595;28;8809;-74
2024/02/09 20:26:13;;;;;;;;;1.75;1.00;;;;;;;;5055323;28;8881;-74
2024/02/09 20:28:39;;;;;;;;;3.00;1.00;;;;;;;;5059295;28;12059;-75
2024/02/09 20:31:08;;;;;;;;;3.75;2.50;;;;;;;;5047033;28;11391;-76
2024/02/09 20:33:34;;;;;;;;;1.00;1.00;;;;;;;;5072202;28;8788;-75
2024/02/09 20:36:00;;;;;;;;;14.00;12.25;;;;;;;;5072098;28;12374;-78
2024/02/09 20:38:25;;;;;;;;;5.50;4.00;;;;;;;;5072164;28;8788;-76
2024/02/09 20:40:51;;;;;;;;;4.25;1.50;;;;;;;;5071838;28;8840;-77
2024/02/09 20:43:17;;;;;;;;;1.00;1.00;;;;;;;;5053346;28;8816;-76
2024/02/09 20:45:46;;;;;;;;;1.50;1.00;;;;;;;;5069611;28;11435;-72
2024/02/09 20:48:14;;;;;;;;;6.00;4.00;;;;;;;;5050909;28;8817;-72
2024/02/09 20:50:42;;;;;;;;;7.75;4.50;;;;;;;;5051654;28;11407;-77
2024/02/09 20:53:08;;;;;;;;;1.25;0.50;;;;;;;;5033103;28;11381;-73
2024/02/09 20:55:34;;;;;;;;;3.00;1.50;;;;;;;;5051109;28;10973;-76
2024/02/09 20:58:03;;;;;;;;;2.50;2.00;;;;;;;;5051220;28;8960;-78
2024/02/09 21:00:28;;;;;;;;;0.25;0.25;;;;;;;;5050742;28;11193;-82
2024/02/09 21:02:53;;;;;;;;;3.50;1.00;;;;;;;;5051481;28;11386;-77
2024/02/09 21:05:19;;;;;;;;;3.50;1.25;;;;;;;;5051456;28;8791;-77
2024/02/09 21:07:46;;;;;;;;;1.00;1.00;;;;;;;;5051272;28;8917;-76
2024/02/09 21:10:13;;;;;;;;;2.50;0.25;;;;;;;;5051132;28;8786;-75
2024/02/09 21:12:40;;;;;;;;;0.00;0.00;;;;;;;;5050827;28;11139;-75
2024/02/09 21:15:05;;;;;;;;;1.00;1.00;;;;;;;;5051028;28;11018;-73
2024/02/09 21:17:30;;;;;;;;;1.00;1.00;;;;;;;;5016462;28;11554;-74
2024/02/09 21:19:58;;;;;;;;;5.00;5.00;;;;;;;;5031151;28;8957;-73
2024/02/09 21:22:24;;;;;;;;;3.50;3.50;;;;;;;;5048745;28;8802;-73
2024/02/09 21:24:50;;;;;;;;;2.00;2.00;;;;;;;;5031382;28;11408;-72
2024/02/09 21:27:15;;;;;;;;;1.25;1.25;;;;;;;;5049840;28;11369;-73
2024/02/09 21:29:40;;;;;;;;;1.00;1.00;;;;;;;;5049921;28;8810;-72
2024/02/09 21:32:14;;;;;;;;;2.00;2.00;;;;;;;;5049873;28;8841;-72
2024/02/09 21:34:39;;;;;;;;;5.50;4.00;;;;;;;;5046506;28;8953;-72
2024/02/09 21:37:05;;;;;;;;;1.75;1.75;;;;;;;;5047192;28;11499;-72
2024/02/09 21:39:30;;;;;;;;;4.75;1.00;;;;;;;;5050090;28;8819;-72
2024/02/09 21:41:55;;;;;;;;;4.00;3.75;;;;;;;;5050000;28;8806;-72
2024/02/09 21:44:20;;;;;;;;;4.75;4.00;;;;;;;;5031919;28;8842;-72
2024/02/09 21:46:45;;;;;;;;;7.50;4.00;;;;;;;;5049815;28;8798;-74
2024/02/09 21:49:11;;;;;;;;;3.00;2.00;;;;;;;;5032085;28;8818;-74
2024/02/09 21:51:36;;;;;;;;;3.75;2.00;;;;;;;;5051461;28;9547;-72
2024/02/09 21:54:05;;;;;;;;;4.00;4.00;;;;;;;;5048285;28;8810;-73
2024/02/09 21:56:31;;;;;;;;;5.00;2.00;;;;;;;;5047936;28;8806;-73
2024/02/09 21:58:58;;;;;;;;;6.00;2.00;;;;;;;;5048971;28;11424;-73
2024/02/09 22:01:23;;;;;;;;;3.00;2.00;;;;;;;;5049606;28;12313;-73
2024/02/09 22:03:48;;;;;;;;;2.00;1.00;;;;;;;;5049604;28;11348;-73
2024/02/09 22:06:16;;;;;;;;;1.50;1.50;;;;;;;;5049560;28;9569;-73
2024/02/09 22:08:43;;;;;;;;;4.50;2.00;;;;;;;;5049710;28;8799;-73
2024/02/09 22:11:10;;;;;;;;;5.25;4.00;;;;;;;;5049464;28;11521;-73
2024/02/09 22:13:37;;;;;;;;;4.00;1.25;;;;;;;;5031277;28;11448;-72
2024/02/09 22:16:04;;;;;;;;;2.00;2.00;;;;;;;;5049451;28;11373;-72
2024/02/09 22:18:31;;;;;;;;;3.00;1.50;;;;;;;;5049828;28;11494;-71
2024/02/09 22:20:58;;;;;;;;;2.00;0.75;;;;;;;;5048619;28;11199;-71
2024/02/09 22:23:23;;;;;;;;;17.25;12.75;;;;;;;;5049886;28;11066;-71
2024/02/09 22:25:49;;;;;;;;;5.00;5.00;;;;;;;;5049586;28;11545;-71
2024/02/09 22:28:14;;;;;;;;;18.00;16.25;;;;;;;;5031815;28;8807;-71
2024/02/09 22:30:41;;;;;;;;;10.00;6.00;;;;;;;;5049562;28;8802;-71
2024/02/09 22:33:06;;;;;;;;;6.25;5.00;;;;;;;;5049666;28;8867;-71
2024/02/09 22:35:31;;;;;;;;;3.75;2.00;;;;;;;;5047908;28;11114;-71
2024/02/09 22:37:58;;;;;;;;;2.00;2.00;;;;;;;;5044685;28;9609;-71
2024/02/09 22:40:25;;;;;;;;;2.75;2.00;;;;;;;;5049205;28;8830;-74
2024/02/09 22:42:53;;;;;;;;;2.75;2.75;;;;;;;;5049175;28;10879;-70
2024/02/09 22:45:22;;;;;;;;;6.50;4.50;;;;;;;;5030498;28;11254;-74
2024/02/09 22:47:55;;;;;;;;;1.25;1.25;;;;;;;;5030317;28;11075;-74
2024/02/09 22:50:20;;;;;;;;;3.00;2.00;;;;;;;;5049326;28;10863;-72
2024/02/09 22:52:46;;;;;;;;;6.50;3.75;;;;;;;;5049684;28;10940;-73
2024/02/09 22:55:11;;;;;;;;;2.00;2.00;;;;;;;;5049524;28;8821;-72
2024/02/09 22:57:38;;;;;;;;;8.25;4.00;;;;;;;;5049614;28;8806;-72
2024/02/09 23:00:35;;;;;;;;;4.00;2.00;;;;;;;;5031493;28;8834;-72
2024/02/09 23:02:50;;;;;;;;;9.00;3.00;;;;;;;;5047295;28;10956;-73
2024/02/09 23:05:15;;;;;;;;;5.50;2.50;;;;;;;;5031630;28;10999;-71
2024/02/09 23:07:41;;;;;;;;;4.00;2.00;;;;;;;;5051538;28;8855;-71
2024/02/09 23:10:07;;;;;;;;;6.00;5.50;;;;;;;;5053112;28;8798;-72
2024/02/09 23:12:38;;;;;;;;;4.50;3.25;;;;;;;;5053624;28;9619;-72
2024/02/09 23:15:15;;;;;;;;;3.00;3.00;;;;;;;;5050587;28;8786;-72
2024/02/09 23:17:47;;;;;;;;;5.00;1.00;;;;;;;;5053016;28;10945;-72
2024/02/09 23:20:13;;;;;;;;;2.00;2.00;;;;;;;;5052745;28;10954;-73
2024/02/09 23:22:38;;;;;;;;;4.50;3.00;;;;;;;;5053015;28;11009;-72
2024/02/09 23:25:03;;;;;;;;;6.00;5.00;;;;;;;;5053052;28;8786;-72
2024/02/09 23:27:29;;;;;;;;;13.75;12.00;;;;;;;;5052920;28;8783;-73
2024/02/09 23:29:54;;;;;;;;;20.00;17.00;;;;;;;;5035171;28;8939;-72
2024/02/09 23:32:20;;;;;;;;;22.50;20.00;;;;;;;;5052976;28;8775;-72
2024/02/09 23:34:46;;;;;;;;;17.50;17.50;;;;;;;;5053065;28;9492;-72
2024/02/09 23:37:15;;;;;;;;;20.75;19.00;;;;;;;;5053140;28;8783;-71
2024/02/09 23:39:40;;;;;;;;;26.00;21.00;;;;;;;;5052831;28;12538;-73
2024/02/09 23:42:09;;;;;;;;;29.25;24.50;;;;;;;;5052688;28;11514;-73
2024/02/09 23:44:35;;;;;;;;;27.25;23.50;;;;;;;;5053013;28;8798;-73
2024/02/09 23:47:00;;;;;;;;;26.75;25.75;;;;;;;;5052657;28;11493;-73
2024/02/09 23:49:27;;;;;;;;;28.00;21.00;;;;;;;;5052675;28;11473;-73
